createdAt,value
2018-09-27T00:00:00.285Z,102200.98
2018-09-27T00:00:12.033Z,102200.98
2018-09-27T00:00:23.791Z,102205.27
2018-09-27T00:00:35.544Z,102204.89
2018-09-27T00:00:47.308Z,102200.05
2018-09-27T00:00:59.042Z,102204.89
2018-09-27T00:01:10.790Z,102205.82
2018-09-27T00:01:22.556Z,102200.05
2018-09-27T00:01:34.334Z,102198.00
2018-09-27T00:01:46.083Z,102202.46
2018-09-27T00:01:57.835Z,102200.23
2018-09-27T00:02:09.613Z,102208.43
2018-09-27T00:02:21.403Z,102199.67
2018-09-27T00:02:33.159Z,102197.45
2018-09-27T00:02:44.928Z,102194.46
2018-09-27T00:02:56.684Z,102198.38
2018-09-27T00:03:08.422Z,102197.82
2018-09-27T00:03:20.183Z,102200.98
2018-09-27T00:03:31.935Z,102199.13
2018-09-27T00:03:43.692Z,102197.45
2018-09-27T00:03:55.459Z,102201.91
2018-09-27T00:04:07.215Z,102200.98
2018-09-27T00:04:18.956Z,102195.22
2018-09-27T00:04:30.706Z,102199.67
2018-09-27T00:04:42.459Z,102196.14
2018-09-27T00:04:54.198Z,102197.27
2018-09-27T00:05:05.967Z,102198.75
2018-09-27T00:05:17.706Z,102201.36
2018-09-27T00:05:29.450Z,102202.66
2018-09-27T00:05:41.199Z,102204.34
2018-09-27T00:05:52.942Z,102197.82
2018-09-27T00:06:04.710Z,102203.97
2018-09-27T00:06:16.475Z,102198.75
2018-09-27T00:06:28.214Z,102197.07
2018-09-27T00:06:39.967Z,102196.14
2018-09-27T00:06:51.720Z,102200.05
2018-09-27T00:07:03.492Z,102197.07
2018-09-27T00:07:15.244Z,102203.22
2018-09-27T00:07:26.995Z,102203.97
2018-09-27T00:07:38.731Z,102199.67
2018-09-27T00:07:50.504Z,102200.05
2018-09-27T00:08:02.260Z,102203.97
2018-09-27T00:08:14.021Z,102198.38
2018-09-27T00:08:25.830Z,102202.28
2018-09-27T00:08:37.577Z,102203.59
2018-09-27T00:08:49.328Z,102206.95
2018-09-27T00:09:01.095Z,102203.97
2018-09-27T00:09:12.847Z,102210.11
2018-09-27T00:09:24.610Z,102200.98
2018-09-27T00:09:36.363Z,102205.82
2018-09-27T00:09:48.119Z,102200.61
2018-09-27T00:09:59.875Z,102200.61
2018-09-27T00:10:11.638Z,102204.89
2018-09-27T00:10:23.374Z,102202.28
2018-09-27T00:10:35.131Z,102205.27
2018-09-27T00:10:46.899Z,102198.75
2018-09-27T00:10:58.650Z,102203.22
2018-09-27T00:11:10.407Z,102200.05
2018-09-27T00:11:22.163Z,102198.38
2018-09-27T00:11:33.932Z,102197.82
2018-09-27T00:11:45.686Z,102198.38
2018-09-27T00:11:57.435Z,102200.61
2018-09-27T00:12:09.163Z,102200.98
2018-09-27T00:12:20.947Z,102202.66
2018-09-27T00:12:32.687Z,102200.61
2018-09-27T00:12:44.495Z,102206.20
2018-09-27T00:12:56.247Z,102203.97
2018-09-27T00:13:08.000Z,102196.89
2018-09-27T00:13:19.844Z,102202.28
2018-09-27T00:13:31.589Z,102203.22
2018-09-27T00:13:43.346Z,102199.67
2018-09-27T00:13:55.094Z,102200.05
2018-09-27T00:14:06.904Z,102197.82
2018-09-27T00:14:18.652Z,102203.97
2018-09-27T00:14:30.408Z,102201.73
2018-09-27T00:14:42.157Z,102201.36
2018-09-27T00:14:53.908Z,102202.66
2018-09-27T00:15:05.661Z,102202.66
2018-09-27T00:15:17.423Z,102200.43
2018-09-27T00:15:29.160Z,102204.89
2018-09-27T00:15:40.918Z,102203.04
2018-09-27T00:15:52.664Z,102200.43
2018-09-27T00:16:04.447Z,102203.41
2018-09-27T00:16:16.201Z,102199.13
2018-09-27T00:16:27.953Z,102202.66
2018-09-27T00:16:39.699Z,102202.66
2018-09-27T00:16:51.442Z,102198.75
2018-09-27T00:17:03.210Z,102201.36
2018-09-27T00:17:14.973Z,102200.98
2018-09-27T00:17:26.718Z,102200.05
2018-09-27T00:17:38.458Z,102205.82
2018-09-27T00:17:50.229Z,102204.34
2018-09-27T00:18:01.970Z,102201.36
2018-09-27T00:18:13.820Z,102210.11
2018-09-27T00:18:25.572Z,102194.28
2018-09-27T00:18:37.572Z,102193.91
2018-09-27T00:18:49.327Z,102207.88
2018-09-27T00:19:01.074Z,102198.75
2018-09-27T00:19:12.839Z,102207.50
2018-09-27T00:19:24.612Z,102204.89
2018-09-27T00:19:36.507Z,102203.04
2018-09-27T00:19:48.247Z,102202.66
2018-09-27T00:20:00.003Z,102206.20
2018-09-27T00:20:11.750Z,102202.66
2018-09-27T00:20:23.512Z,102203.97
2018-09-27T00:20:35.280Z,102205.82
2018-09-27T00:20:47.027Z,102200.98
2018-09-27T00:20:58.778Z,102202.84
2018-09-27T00:21:10.541Z,102207.50
2018-09-27T00:21:22.293Z,102205.45
2018-09-27T00:21:34.047Z,102204.70
2018-09-27T00:21:45.806Z,102208.05
2018-09-27T00:21:57.542Z,102202.46
2018-09-27T00:22:09.327Z,102210.28
2018-09-27T00:22:21.072Z,102202.66
2018-09-27T00:22:32.836Z,102208.43
2018-09-27T00:22:44.586Z,102210.66
2018-09-27T00:22:56.359Z,102213.27
2018-09-27T00:23:08.120Z,102205.82
2018-09-27T00:23:19.873Z,102208.43
2018-09-27T00:23:31.615Z,102207.13
2018-09-27T00:23:43.547Z,102211.41
2018-09-27T00:23:55.294Z,102210.11
2018-09-27T00:24:07.227Z,102207.50
2018-09-27T00:24:18.978Z,102205.45
2018-09-27T00:24:30.733Z,102203.22
2018-09-27T00:24:42.471Z,102193.16
2018-09-27T00:24:54.226Z,102194.84
2018-09-27T00:25:06.011Z,102201.53
2018-09-27T00:25:17.765Z,102202.28
2018-09-27T00:25:29.527Z,102205.27
2018-09-27T00:25:41.289Z,102198.38
2018-09-27T00:25:53.029Z,102198.38
2018-09-27T00:26:04.792Z,102199.67
2018-09-27T00:26:16.571Z,102203.97
2018-09-27T00:26:28.346Z,102203.97
2018-09-27T00:26:40.083Z,102202.28
2018-09-27T00:26:51.846Z,102204.52
2018-09-27T00:27:03.599Z,102204.14
2018-09-27T00:27:15.357Z,102197.07
2018-09-27T00:27:27.108Z,102204.34
2018-09-27T00:27:38.875Z,102203.97
2018-09-27T00:27:50.631Z,102197.07
2018-09-27T00:28:02.420Z,102200.98
2018-09-27T00:28:14.172Z,102200.05
2018-09-27T00:28:25.933Z,102200.98
2018-09-27T00:28:37.687Z,102198.38
2018-09-27T00:28:49.455Z,102199.67
2018-09-27T00:29:01.219Z,102198.38
2018-09-27T00:29:12.973Z,102195.77
2018-09-27T00:29:24.726Z,102196.52
2018-09-27T00:29:36.463Z,102196.89
2018-09-27T00:29:48.215Z,102203.59
2018-09-27T00:29:59.958Z,102199.67
2018-09-27T00:30:11.716Z,102198.75
2018-09-27T00:30:23.466Z,102199.67
2018-09-27T00:30:35.218Z,102202.66
2018-09-27T00:30:46.974Z,102205.82
2018-09-27T00:30:58.732Z,102198.75
2018-09-27T00:31:10.487Z,102201.91
2018-09-27T00:31:22.250Z,102199.30
2018-09-27T00:31:34.003Z,102201.36
2018-09-27T00:31:45.753Z,102203.59
2018-09-27T00:31:57.511Z,102203.59
2018-09-27T00:32:09.254Z,102200.61
2018-09-27T00:32:21.001Z,102202.66
2018-09-27T00:32:32.761Z,102194.46
2018-09-27T00:32:44.502Z,102203.22
2018-09-27T00:32:56.408Z,102199.30
2018-09-27T00:33:08.193Z,102199.67
2018-09-27T00:33:19.961Z,102201.91
2018-09-27T00:33:31.718Z,102199.85
2018-09-27T00:33:43.475Z,102199.85
2018-09-27T00:33:55.219Z,102201.16
2018-09-27T00:34:06.974Z,102195.39
2018-09-27T00:34:18.739Z,102203.22
2018-09-27T00:34:30.493Z,102197.07
2018-09-27T00:34:42.257Z,102199.85
2018-09-27T00:34:54.016Z,102197.62
2018-09-27T00:35:05.759Z,102203.39
2018-09-27T00:35:17.526Z,102201.16
2018-09-27T00:35:29.289Z,102202.28
2018-09-27T00:35:41.069Z,102199.67
2018-09-27T00:35:52.832Z,102198.92
2018-09-27T00:36:04.588Z,102196.14
2018-09-27T00:36:16.339Z,102200.61
2018-09-27T00:36:28.089Z,102202.84
2018-09-27T00:36:39.834Z,102204.14
2018-09-27T00:36:51.596Z,102197.07
2018-09-27T00:37:03.339Z,102201.91
2018-09-27T00:37:15.096Z,102195.39
2018-09-27T00:37:26.848Z,102202.28
2018-09-27T00:37:38.595Z,102200.61
2018-09-27T00:37:50.379Z,102195.39
2018-09-27T00:38:02.132Z,102196.69
2018-09-27T00:38:13.923Z,102195.77
2018-09-27T00:38:25.666Z,102198.38
2018-09-27T00:38:37.430Z,102198.75
2018-09-27T00:38:49.175Z,102198.75
2018-09-27T00:39:01.050Z,102201.36
2018-09-27T00:39:13.654Z,102194.09
2018-09-27T00:39:25.404Z,102202.84
2018-09-27T00:39:37.160Z,102197.45
2018-09-27T00:39:48.919Z,102204.89
2018-09-27T00:40:00.698Z,102196.14
2018-09-27T00:40:12.457Z,102197.82
2018-09-27T00:40:24.212Z,102201.73
2018-09-27T00:40:35.967Z,102204.34
2018-09-27T00:40:47.715Z,102203.04
2018-09-27T00:40:59.504Z,102204.72
2018-09-27T00:41:11.253Z,102200.80
2018-09-27T00:41:23.011Z,102200.43
2018-09-27T00:41:34.753Z,102197.82
2018-09-27T00:41:46.513Z,102203.04
2018-09-27T00:41:58.254Z,102207.50
2018-09-27T00:42:10.010Z,102211.41
2018-09-27T00:42:21.816Z,102204.34
2018-09-27T00:42:33.585Z,102205.27
2018-09-27T00:42:45.337Z,102195.22
2018-09-27T00:42:57.086Z,102201.73
2018-09-27T00:43:08.869Z,102205.64
2018-09-27T00:43:20.659Z,102206.20
2018-09-27T00:43:32.425Z,102203.97
2018-09-27T00:43:44.224Z,102203.04
2018-09-27T00:43:55.970Z,102198.20
2018-09-27T00:44:07.959Z,102206.58
2018-09-27T00:44:19.711Z,102207.88
2018-09-27T00:44:31.478Z,102201.18
2018-09-27T00:44:43.491Z,102204.34
2018-09-27T00:44:55.252Z,102210.48
2018-09-27T00:45:07.021Z,102202.66
2018-09-27T00:45:18.779Z,102206.58
2018-09-27T00:45:30.542Z,102200.43
2018-09-27T00:45:43.104Z,102198.75
2018-09-27T00:45:54.846Z,102204.34
2018-09-27T00:46:06.581Z,102206.58
2018-09-27T00:46:18.339Z,102203.04
2018-09-27T00:46:30.099Z,102209.19
2018-09-27T00:46:41.858Z,102206.20
2018-09-27T00:46:53.614Z,102198.75
2018-09-27T00:47:05.398Z,102203.97
2018-09-27T00:47:17.161Z,102203.41
2018-09-27T00:47:28.919Z,102205.64
2018-09-27T00:47:40.690Z,102207.70
2018-09-27T00:47:52.452Z,102204.34
2018-09-27T00:48:04.213Z,102201.18
2018-09-27T00:48:17.099Z,102204.34
2018-09-27T00:48:28.871Z,102203.04
2018-09-27T00:48:40.627Z,102201.73
2018-09-27T00:48:52.391Z,102206.95
2018-09-27T00:49:04.152Z,102208.25
2018-09-27T00:49:15.897Z,102206.39
2018-09-27T00:49:27.651Z,102209.19
2018-09-27T00:49:39.418Z,102208.25
2018-09-27T00:49:51.179Z,102205.64
2018-09-27T00:50:02.940Z,102206.95
2018-09-27T00:50:14.692Z,102203.04
2018-09-27T00:50:26.471Z,102205.27
2018-09-27T00:50:38.257Z,102204.34
2018-09-27T00:50:50.025Z,102201.36
2018-09-27T00:51:01.772Z,102204.34
2018-09-27T00:51:13.535Z,102203.04
2018-09-27T00:51:25.278Z,102206.95
2018-09-27T00:51:37.043Z,102209.94
2018-09-27T00:51:48.782Z,102203.04
2018-09-27T00:52:00.530Z,102203.97
2018-09-27T00:52:12.282Z,102205.27
2018-09-27T00:52:24.031Z,102203.04
2018-09-27T00:52:35.791Z,102203.04
2018-09-27T00:52:47.539Z,102206.58
2018-09-27T00:52:59.292Z,102205.64
2018-09-27T00:53:11.400Z,102203.04
2018-09-27T00:53:23.158Z,102208.25
2018-09-27T00:53:34.914Z,102203.79
2018-09-27T00:53:46.671Z,102201.36
2018-09-27T00:53:58.436Z,102206.58
2018-09-27T00:54:10.177Z,102206.02
2018-09-27T00:54:21.925Z,102204.72
2018-09-27T00:54:33.823Z,102202.66
2018-09-27T00:54:45.572Z,102209.73
2018-09-27T00:54:57.318Z,102208.80
2018-09-27T00:55:09.059Z,102208.80
2018-09-27T00:55:20.808Z,102207.50
2018-09-27T00:55:32.563Z,102203.04
2018-09-27T00:55:44.322Z,102207.88
2018-09-27T00:55:56.075Z,102207.50
2018-09-27T00:56:07.824Z,102214.58
2018-09-27T00:56:19.577Z,102207.50
2018-09-27T00:56:31.482Z,102214.95
2018-09-27T00:56:43.244Z,102206.58
2018-09-27T00:56:55.011Z,102203.97
2018-09-27T00:57:06.767Z,102207.88
2018-09-27T00:57:18.528Z,102207.88
2018-09-27T00:57:30.367Z,102214.02
2018-09-27T00:57:42.130Z,102210.48
2018-09-27T00:57:53.874Z,102209.19
2018-09-27T00:58:05.632Z,102209.19
2018-09-27T00:58:17.403Z,102210.11
2018-09-27T00:58:29.191Z,102206.20
2018-09-27T00:58:40.974Z,102210.66
2018-09-27T00:58:52.713Z,102209.73
2018-09-27T00:59:04.472Z,102207.13
2018-09-27T00:59:16.227Z,102211.97
2018-09-27T00:59:27.979Z,102211.41
2018-09-27T00:59:39.728Z,102206.75
2018-09-27T00:59:51.470Z,102208.43
2018-09-27T01:00:03.224Z,102207.50
2018-09-27T01:00:14.987Z,102204.89
2018-09-27T01:00:26.747Z,102206.20
2018-09-27T01:00:39.009Z,102205.27
2018-09-27T01:00:50.770Z,102203.97
2018-09-27T01:01:02.531Z,102203.22
2018-09-27T01:01:14.286Z,102208.43
2018-09-27T01:01:26.043Z,102206.58
2018-09-27T01:01:37.798Z,102198.00
2018-09-27T01:01:49.543Z,102208.80
2018-09-27T01:02:01.303Z,102204.14
2018-09-27T01:02:13.071Z,102206.58
2018-09-27T01:02:24.822Z,102202.46
2018-09-27T01:02:36.599Z,102206.75
2018-09-27T01:02:48.342Z,102204.34
2018-09-27T01:03:00.195Z,102198.75
2018-09-27T01:03:11.934Z,102205.27
2018-09-27T01:03:23.703Z,102205.27
2018-09-27T01:03:35.446Z,102210.11
2018-09-27T01:03:47.205Z,102208.80
2018-09-27T01:03:58.969Z,102206.95
2018-09-27T01:04:10.726Z,102204.89
2018-09-27T01:04:22.475Z,102208.80
2018-09-27T01:04:34.219Z,102202.28
2018-09-27T01:04:45.968Z,102200.23
2018-09-27T01:04:57.737Z,102205.82
2018-09-27T01:05:09.486Z,102203.59
2018-09-27T01:05:21.257Z,102200.98
2018-09-27T01:05:33.033Z,102205.45
2018-09-27T01:05:44.801Z,102201.91
2018-09-27T01:05:56.553Z,102203.97
2018-09-27T01:06:08.306Z,102198.00
2018-09-27T01:06:20.062Z,102201.36
2018-09-27T01:06:31.829Z,102199.30
2018-09-27T01:06:43.590Z,102195.22
2018-09-27T01:06:55.417Z,102205.45
2018-09-27T01:07:07.172Z,102200.23
2018-09-27T01:07:18.931Z,102200.23
2018-09-27T01:07:30.682Z,102197.07
2018-09-27T01:07:42.436Z,102202.84
2018-09-27T01:07:54.183Z,102200.98
2018-09-27T01:08:05.935Z,102201.36
2018-09-27T01:08:17.700Z,102195.22
2018-09-27T01:08:29.451Z,102203.59
2018-09-27T01:08:41.212Z,102200.98
2018-09-27T01:08:53.602Z,102203.22
2018-09-27T01:09:05.360Z,102200.05
2018-09-27T01:09:17.116Z,102204.52
2018-09-27T01:09:28.879Z,102204.52
2018-09-27T01:09:40.653Z,102206.20
2018-09-27T01:09:52.421Z,102203.22
2018-09-27T01:10:04.191Z,102208.43
2018-09-27T01:10:15.960Z,102198.00
2018-09-27T01:10:27.698Z,102201.91
2018-09-27T01:10:39.438Z,102210.11
2018-09-27T01:10:51.190Z,102200.61
2018-09-27T01:11:02.939Z,102202.84
2018-09-27T01:11:14.687Z,102204.89
2018-09-27T01:11:26.451Z,102204.14
2018-09-27T01:11:38.550Z,102209.73
2018-09-27T01:11:50.315Z,102205.82
2018-09-27T01:12:02.075Z,102203.59
2018-09-27T01:12:13.826Z,102207.13
2018-09-27T01:12:25.611Z,102207.50
2018-09-27T01:12:37.384Z,102205.07
2018-09-27T01:12:49.181Z,102206.00
2018-09-27T01:13:00.895Z,102210.28
2018-09-27T01:13:12.651Z,102204.89
2018-09-27T01:13:24.406Z,102208.98
2018-09-27T01:13:36.158Z,102212.34
2018-09-27T01:13:48.111Z,102204.52
2018-09-27T01:13:59.857Z,102208.05
2018-09-27T01:14:11.593Z,102207.13
2018-09-27T01:14:23.338Z,102207.50
2018-09-27T01:14:35.094Z,102205.82
2018-09-27T01:14:46.863Z,102201.53
2018-09-27T01:14:58.614Z,102209.36
2018-09-27T01:15:10.372Z,102208.98
2018-09-27T01:15:22.107Z,102210.11
2018-09-27T01:15:33.854Z,102211.03
2018-09-27T01:15:45.608Z,102209.19
2018-09-27T01:15:57.368Z,102208.80
2018-09-27T01:16:09.117Z,102213.09
2018-09-27T01:16:20.870Z,102213.64
2018-09-27T01:16:32.631Z,102206.58
2018-09-27T01:16:44.390Z,102212.34
2018-09-27T01:16:56.155Z,102205.64
2018-09-27T01:17:07.926Z,102210.11
2018-09-27T01:17:19.688Z,102208.43
2018-09-27T01:17:31.439Z,102209.73
2018-09-27T01:17:43.186Z,102208.05
2018-09-27T01:17:54.928Z,102211.97
2018-09-27T01:18:06.672Z,102211.59
2018-09-27T01:18:18.547Z,102211.03
2018-09-27T01:18:30.295Z,102213.27
2018-09-27T01:18:42.055Z,102210.28
2018-09-27T01:18:53.840Z,102211.41
2018-09-27T01:19:05.583Z,102211.41
2018-09-27T01:19:17.363Z,102216.25
2018-09-27T01:19:29.132Z,102213.27
2018-09-27T01:19:40.894Z,102214.95
2018-09-27T01:19:52.638Z,102213.64
2018-09-27T01:20:04.407Z,102214.40
2018-09-27T01:20:16.178Z,102211.03
2018-09-27T01:20:27.944Z,102211.79
2018-09-27T01:20:39.698Z,102211.79
2018-09-27T01:20:51.455Z,102209.19
2018-09-27T01:21:03.211Z,102213.64
2018-09-27T01:21:14.960Z,102208.43
2018-09-27T01:21:26.733Z,102220.17
2018-09-27T01:21:38.492Z,102211.97
2018-09-27T01:21:50.247Z,102209.73
2018-09-27T01:22:02.016Z,102216.25
2018-09-27T01:22:13.776Z,102209.19
2018-09-27T01:22:25.538Z,102206.58
2018-09-27T01:22:37.308Z,102211.03
2018-09-27T01:22:49.058Z,102212.72
2018-09-27T01:23:00.804Z,102206.58
2018-09-27T01:23:12.570Z,102208.43
2018-09-27T01:23:24.322Z,102212.34
2018-09-27T01:23:36.258Z,102218.86
2018-09-27T01:23:48.032Z,102212.34
2018-09-27T01:23:59.819Z,102209.36
2018-09-27T01:24:11.573Z,102221.09
2018-09-27T01:24:23.327Z,102211.97
2018-09-27T01:24:35.084Z,102210.66
2018-09-27T01:24:46.839Z,102212.34
2018-09-27T01:24:58.586Z,102214.20
2018-09-27T01:25:10.335Z,102208.05
2018-09-27T01:25:22.103Z,102211.97
2018-09-27T01:25:33.854Z,102211.03
2018-09-27T01:25:45.641Z,102214.58
2018-09-27T01:25:57.412Z,102209.73
2018-09-27T01:26:09.159Z,102217.19
2018-09-27T01:26:20.919Z,102214.95
2018-09-27T01:26:32.672Z,102220.17
2018-09-27T01:26:44.437Z,102216.25
2018-09-27T01:26:56.193Z,102210.86
2018-09-27T01:27:07.948Z,102214.95
2018-09-27T01:27:19.700Z,102212.34
2018-09-27T01:27:31.439Z,102214.95
2018-09-27T01:27:43.195Z,102212.34
2018-09-27T01:27:54.999Z,102211.03
2018-09-27T01:28:06.768Z,102209.73
2018-09-27T01:28:18.523Z,102210.66
2018-09-27T01:28:30.295Z,102217.19
2018-09-27T01:28:42.042Z,102213.27
2018-09-27T01:28:53.800Z,102211.97
2018-09-27T01:29:05.576Z,102214.95
2018-09-27T01:29:17.321Z,102217.56
2018-09-27T01:29:29.067Z,102211.41
2018-09-27T01:29:40.831Z,102212.72
2018-09-27T01:29:52.587Z,102213.64
2018-09-27T01:30:04.338Z,102210.66
2018-09-27T01:30:16.104Z,102211.97
2018-09-27T01:30:27.855Z,102213.27
2018-09-27T01:30:39.623Z,102213.64
2018-09-27T01:30:51.362Z,102218.48
2018-09-27T01:31:03.126Z,102218.31
2018-09-27T01:31:14.883Z,102213.09
2018-09-27T01:31:26.631Z,102210.48
2018-09-27T01:31:38.388Z,102209.19
2018-09-27T01:31:50.138Z,102206.95
2018-09-27T01:32:01.903Z,102213.09
2018-09-27T01:32:13.827Z,102216.08
2018-09-27T01:32:25.600Z,102210.11
2018-09-27T01:32:37.466Z,102210.48
2018-09-27T01:32:49.231Z,102214.40
2018-09-27T01:33:00.987Z,102214.02
2018-09-27T01:33:12.744Z,102208.80
2018-09-27T01:33:24.488Z,102217.94
2018-09-27T01:33:36.221Z,102214.02
2018-09-27T01:33:47.977Z,102214.40
2018-09-27T01:33:59.776Z,102213.09
2018-09-27T01:34:11.578Z,102214.02
2018-09-27T01:34:23.335Z,102213.64
2018-09-27T01:34:35.104Z,102214.95
2018-09-27T01:34:46.852Z,102217.56
2018-09-27T01:34:58.599Z,102211.41
2018-09-27T01:35:10.357Z,102214.02
2018-09-27T01:35:22.107Z,102211.41
2018-09-27T01:35:33.864Z,102210.11
2018-09-27T01:35:45.605Z,102213.27
2018-09-27T01:35:57.362Z,102211.03
2018-09-27T01:36:09.123Z,102214.58
2018-09-27T01:36:20.887Z,102212.89
2018-09-27T01:36:32.627Z,102213.27
2018-09-27T01:36:44.374Z,102205.82
2018-09-27T01:36:56.123Z,102208.43
2018-09-27T01:37:07.881Z,102204.52
2018-09-27T01:37:19.625Z,102211.41
2018-09-27T01:37:31.383Z,102211.03
2018-09-27T01:37:43.163Z,102205.82
2018-09-27T01:37:54.967Z,102203.97
2018-09-27T01:38:06.711Z,102210.28
2018-09-27T01:38:18.457Z,102202.28
2018-09-27T01:38:30.186Z,102207.13
2018-09-27T01:38:41.935Z,102208.05
2018-09-27T01:38:53.679Z,102209.36
2018-09-27T01:39:05.433Z,102206.37
2018-09-27T01:39:17.210Z,102207.13
2018-09-27T01:39:28.981Z,102208.43
2018-09-27T01:39:40.747Z,102207.13
2018-09-27T01:39:52.670Z,102206.37
2018-09-27T01:40:04.420Z,102207.68
2018-09-27T01:40:16.158Z,102204.52
2018-09-27T01:40:27.911Z,102209.73
2018-09-27T01:40:39.697Z,102210.66
2018-09-27T01:40:51.443Z,102209.36
2018-09-27T01:41:03.198Z,102207.13
2018-09-27T01:41:14.952Z,102203.22
2018-09-27T01:41:26.719Z,102207.13
2018-09-27T01:41:38.473Z,102208.05
2018-09-27T01:41:50.215Z,102205.45
2018-09-27T01:42:01.988Z,102210.66
2018-09-27T01:42:13.734Z,102209.36
2018-09-27T01:42:25.484Z,102211.41
2018-09-27T01:42:37.240Z,102206.58
2018-09-27T01:42:48.982Z,102207.50
2018-09-27T01:43:00.727Z,102205.27
2018-09-27T01:43:12.465Z,102206.58
2018-09-27T01:43:24.219Z,102206.20
2018-09-27T01:43:35.982Z,102211.59
2018-09-27T01:43:47.731Z,102206.20
2018-09-27T01:43:59.511Z,102209.36
2018-09-27T01:44:11.275Z,102209.73
2018-09-27T01:44:23.043Z,102211.03
2018-09-27T01:44:34.795Z,102209.19
2018-09-27T01:44:46.552Z,102208.43
2018-09-27T01:44:58.303Z,102212.34
2018-09-27T01:45:10.058Z,102211.41
2018-09-27T01:45:21.798Z,102212.34
2018-09-27T01:45:33.543Z,102213.27
2018-09-27T01:45:45.445Z,102207.50
2018-09-27T01:45:57.189Z,102211.41
2018-09-27T01:46:09.106Z,102211.03
2018-09-27T01:46:20.878Z,102210.11
2018-09-27T01:46:32.630Z,102201.73
2018-09-27T01:46:44.370Z,102203.97
2018-09-27T01:46:56.145Z,102207.13
2018-09-27T01:47:07.932Z,102209.36
2018-09-27T01:47:19.674Z,102202.28
2018-09-27T01:47:31.425Z,102207.88
2018-09-27T01:47:43.174Z,102205.64
2018-09-27T01:47:54.923Z,102210.48
2018-09-27T01:48:06.691Z,102211.79
2018-09-27T01:48:18.503Z,102206.58
2018-09-27T01:48:30.268Z,102203.22
2018-09-27T01:48:42.024Z,102208.80
2018-09-27T01:48:53.766Z,102206.37
2018-09-27T01:49:05.502Z,102204.52
2018-09-27T01:49:17.246Z,102210.66
2018-09-27T01:49:29.089Z,102213.27
2018-09-27T01:49:40.858Z,102201.36
2018-09-27T01:49:52.657Z,102208.43
2018-09-27T01:50:04.420Z,102204.14
2018-09-27T01:50:16.188Z,102205.82
2018-09-27T01:50:27.946Z,102200.61
2018-09-27T01:50:39.848Z,102200.98
2018-09-27T01:50:51.590Z,102206.20
2018-09-27T01:51:03.352Z,102198.38
2018-09-27T01:51:15.110Z,102207.13
2018-09-27T01:51:26.865Z,102201.36
2018-09-27T01:51:38.601Z,102203.59
2018-09-27T01:51:50.402Z,102200.98
2018-09-27T01:52:02.184Z,102202.28
2018-09-27T01:52:13.940Z,102200.98
2018-09-27T01:52:25.695Z,102197.45
2018-09-27T01:52:37.452Z,102205.82
2018-09-27T01:52:49.226Z,102198.38
2018-09-27T01:53:00.984Z,102206.75
2018-09-27T01:53:12.735Z,102209.36
2018-09-27T01:53:24.475Z,102196.14
2018-09-27T01:53:36.222Z,102205.45
2018-09-27T01:53:47.978Z,102205.82
2018-09-27T01:53:59.726Z,102200.98
2018-09-27T01:54:11.461Z,102199.30
2018-09-27T01:54:23.243Z,102202.28
2018-09-27T01:54:35.015Z,102200.23
2018-09-27T01:54:46.763Z,102204.14
2018-09-27T01:54:58.515Z,102198.38
2018-09-27T01:55:10.267Z,102195.77
2018-09-27T01:55:22.010Z,102190.92
2018-09-27T01:55:33.779Z,102198.38
2018-09-27T01:55:45.539Z,102194.84
2018-09-27T01:55:57.286Z,102199.67
2018-09-27T01:56:09.040Z,102193.53
2018-09-27T01:56:20.790Z,102201.36
2018-09-27T01:56:32.538Z,102193.53
2018-09-27T01:56:44.294Z,102195.77
2018-09-27T01:56:56.057Z,102197.07
2018-09-27T01:57:07.811Z,102200.98
2018-09-27T01:57:19.555Z,102199.30
2018-09-27T01:57:31.290Z,102196.14
2018-09-27T01:57:43.039Z,102197.07
2018-09-27T01:57:54.800Z,102196.14
2018-09-27T01:58:06.560Z,102193.53
2018-09-27T01:58:18.312Z,102195.39
2018-09-27T01:58:30.068Z,102190.55
2018-09-27T01:58:41.806Z,102197.45
2018-09-27T01:58:53.566Z,102192.78
2018-09-27T01:59:05.320Z,102193.16
2018-09-27T01:59:17.070Z,102192.78
2018-09-27T01:59:28.819Z,102192.23
2018-09-27T01:59:40.582Z,102191.86
2018-09-27T01:59:52.332Z,102191.48
2018-09-27T02:00:04.081Z,102192.41
2018-09-27T02:00:15.830Z,102191.86
2018-09-27T02:00:27.599Z,102192.23
2018-09-27T02:00:39.351Z,102188.31
2018-09-27T02:00:51.110Z,102184.78
2018-09-27T02:01:02.873Z,102191.86
2018-09-27T02:01:14.627Z,102191.86
2018-09-27T02:01:26.396Z,102191.86
2018-09-27T02:01:38.156Z,102191.30
2018-09-27T02:01:49.908Z,102189.63
2018-09-27T02:02:01.667Z,102194.46
2018-09-27T02:02:13.417Z,102192.23
2018-09-27T02:02:25.167Z,102190.00
2018-09-27T02:02:36.925Z,102187.02
2018-09-27T02:02:48.673Z,102191.67
2018-09-27T02:03:00.431Z,102192.23
2018-09-27T02:03:12.186Z,102186.64
2018-09-27T02:03:23.937Z,102190.92
2018-09-27T02:03:35.691Z,102190.55
2018-09-27T02:03:47.464Z,102187.39
2018-09-27T02:03:59.205Z,102192.23
2018-09-27T02:04:10.951Z,102192.23
2018-09-27T02:04:22.700Z,102189.63
2018-09-27T02:04:34.486Z,102191.48
2018-09-27T02:04:46.259Z,102183.10
2018-09-27T02:04:58.070Z,102188.70
2018-09-27T02:05:09.835Z,102187.94
2018-09-27T02:05:21.579Z,102187.56
2018-09-27T02:05:33.338Z,102192.41
2018-09-27T02:05:45.093Z,102191.48
2018-09-27T02:05:56.839Z,102189.63
2018-09-27T02:06:08.596Z,102188.88
2018-09-27T02:06:20.370Z,102186.27
2018-09-27T02:06:32.132Z,102187.94
2018-09-27T02:06:43.887Z,102194.09
2018-09-27T02:06:55.639Z,102187.56
2018-09-27T02:07:07.388Z,102194.46
2018-09-27T02:07:19.144Z,102191.10
2018-09-27T02:07:30.896Z,102186.81
2018-09-27T02:07:42.648Z,102190.73
2018-09-27T02:07:54.402Z,102197.25
2018-09-27T02:08:06.148Z,102191.10
2018-09-27T02:08:17.927Z,102195.39
2018-09-27T02:08:29.680Z,102196.31
2018-09-27T02:08:41.446Z,102198.92
2018-09-27T02:08:53.186Z,102196.69
2018-09-27T02:09:05.571Z,102193.16
2018-09-27T02:09:17.306Z,102194.09
2018-09-27T02:09:29.074Z,102191.86
2018-09-27T02:09:40.839Z,102194.84
2018-09-27T02:09:52.618Z,102192.23
2018-09-27T02:10:04.380Z,102198.92
2018-09-27T02:10:16.143Z,102196.31
2018-09-27T02:10:27.891Z,102195.77
2018-09-27T02:10:39.634Z,102196.69
2018-09-27T02:10:51.483Z,102197.07
2018-09-27T02:11:03.251Z,102200.61
2018-09-27T02:11:15.037Z,102198.75
2018-09-27T02:11:26.799Z,102192.23
2018-09-27T02:11:38.876Z,102198.92
2018-09-27T02:11:50.636Z,102195.02
2018-09-27T02:12:02.387Z,102201.53
2018-09-27T02:12:14.143Z,102200.61
2018-09-27T02:12:25.890Z,102198.55
2018-09-27T02:12:37.647Z,102198.00
2018-09-27T02:12:49.398Z,102196.69
2018-09-27T02:13:01.163Z,102192.23
2018-09-27T02:13:12.932Z,102196.52
2018-09-27T02:13:24.700Z,102198.75
2018-09-27T02:13:36.775Z,102196.69
2018-09-27T02:13:48.536Z,102200.61
2018-09-27T02:14:00.284Z,102201.91
2018-09-27T02:14:12.032Z,102199.67